Time;durP1;ratioP1;P1;durP2;ratioP2;P2;SDS_P1;SDS_P2;PMS_P1;PMS_P2;Temp;Humidity;BMP_temperature;BMP_pressure;BME280_temperature;BME280_humidity;BME280_pressure;Samples;Min_cycle;Max_cycle;Signal;HPM_P1;HPM_P2
2023/10/01 00:00:59;;;;;;;10.00;3.70;;;14.00;99.90;;;;;;4908998;29;20179;-92
2023/10/01 00:03:25;;;;;;;8.40;3.67;;;14.10;99.90;;;;;;4913165;29;20207;-87
2023/10/01 00:05:52;;;;;;;9.50;4.05;;;14.10;99.90;;;;;;4906566;29;20320;-89
2023/10/01 00:08:18;;;;;;;8.57;3.65;;;14.10;99.90;;;;;;4909370;29;20218;-88
2023/10/01 00:10:44;;;;;;;8.68;3.97;;;14.10;99.90;;;;;;4907904;29;20175;-88
2023/10/01 00:13:11;;;;;;;8.07;3.42;;;14.10;99.90;;;;;;4911886;29;20693;-90
2023/10/01 00:15:40;;;;;;;11.02;3.75;;;14.10;99.90;;;;;;4904126;29;20614;-90
2023/10/01 00:18:06;;;;;;;6.82;3.10;;;14.10;99.90;;;;;;4905551;29;20187;-95
2023/10/01 00:20:35;;;;;;;6.80;3.35;;;14.00;99.90;;;;;;4909316;29;20290;-96
2023/10/01 00:23:02;;;;;;;5.88;3.20;;;14.00;99.90;;;;;;4906436;29;20246;-96
2023/10/01 00:25:35;;;;;;;5.57;3.35;;;14.10;99.90;;;;;;4908808;29;20187;-96
2023/10/01 00:28:04;;;;;;;6.93;3.17;;;14.10;99.90;;;;;;4907588;29;20211;-96
2023/10/01 00:30:33;;;;;;;10.85;3.75;;;14.10;99.90;;;;;;4909425;29;20183;-96
2023/10/01 00:33:00;;;;;;;12.52;3.83;;;14.10;99.90;;;;;;4906958;29;20234;-92
2023/10/01 00:35:26;;;;;;;7.43;3.50;;;14.10;99.90;;;;;;4906797;29;20189;-95
2023/10/01 00:37:51;;;;;;;6.57;3.20;;;14.00;99.90;;;;;;4903940;29;20175;-93
2023/10/01 00:40:18;;;;;;;7.65;3.20;;;14.00;99.90;;;;;;4903872;29;20187;-95
2023/10/01 00:42:44;;;;;;;8.57;3.15;;;14.00;99.90;;;;;;4906514;29;20187;-96
2023/10/01 00:45:15;;;;;;;7.90;3.55;;;13.90;99.90;;;;;;4912563;29;20195;-95
2023/10/01 00:47:45;;;;;;;9.20;4.00;;;13.90;99.90;;;;;;4909053;29;20202;-96
2023/10/01 00:50:16;;;;;;;6.32;3.28;;;13.90;99.90;;;;;;4910992;29;20179;-87
2023/10/01 00:52:42;;;;;;;7.85;3.00;;;13.90;99.90;;;;;;4907042;29;20198;-96
2023/10/01 00:55:10;;;;;;;7.57;3.50;;;13.90;99.90;;;;;;4911125;29;20199;-96
2023/10/01 00:57:42;;;;;;;8.10;3.55;;;13.90;99.90;;;;;;4906657;29;20200;-94
2023/10/01 01:00:12;;;;;;;6.68;3.35;;;13.90;99.90;;;;;;4902411;29;20175;-96
2023/10/01 01:02:46;;;;;;;9.82;3.63;;;13.90;99.90;;;;;;4902982;29;20191;-96
2023/10/01 01:05:34;;;;;;;8.95;3.45;;;13.90;99.90;;;;;;4907116;29;20235;-95
2023/10/01 01:08:10;;;;;;;8.73;3.58;;;13.80;99.90;;;;;;4909130;29;20249;-94
2023/10/01 01:10:43;;;;;;;9.32;3.60;;;13.80;99.90;;;;;;4912196;29;20215;-96
2023/10/01 01:13:16;;;;;;;9.15;3.58;;;13.80;99.90;;;;;;4911279;29;20252;-96
2023/10/01 01:15:45;;;;;;;9.32;3.78;;;13.80;99.90;;;;;;4907479;29;20180;-91
2023/10/01 01:18:20;;;;;;;6.43;2.80;;;13.80;99.90;;;;;;4902682;29;20191;-96
2023/10/01 01:20:47;;;;;;;6.18;3.08;;;13.80;99.90;;;;;;4902002;29;20171;-95
2023/10/01 01:23:23;;;;;;;6.88;3.35;;;13.90;99.90;;;;;;4907663;29;20215;-96
2023/10/01 01:25:52;;;;;;;8.85;3.55;;;13.80;99.90;;;;;;4908799;29;20186;-96
2023/10/01 01:28:27;;;;;;;6.90;3.03;;;13.70;99.90;;;;;;4910931;29;20207;-96
2023/10/01 01:30:55;;;;;;;7.60;3.28;;;13.70;99.90;;;;;;4904413;29;20179;-93
2023/10/01 01:33:21;;;;;;;8.70;3.80;;;13.70;99.90;;;;;;4907941;29;20194;-96
2023/10/01 01:35:54;;;;;;;7.03;3.30;;;13.60;99.90;;;;;;4908916;29;20191;-92
2023/10/01 01:38:21;;;;;;;9.27;3.10;;;13.60;99.90;;;;;;4895121;29;20180;-96
2023/10/01 01:40:51;;;;;;;7.53;3.50;;;13.60;99.90;;;;;;4890227;29;20270;-96
2023/10/01 01:43:23;;;;;;;5.85;3.40;;;13.60;99.90;;;;;;4893225;29;20180;-96
2023/10/01 01:45:55;;;;;;;7.50;2.97;;;13.60;99.90;;;;;;4890798;29;20271;-90
2023/10/01 01:48:30;;;;;;;9.45;3.72;;;13.60;99.90;;;;;;4885630;29;20250;-94
2023/10/01 01:51:00;;;;;;;8.30;3.65;;;13.50;99.90;;;;;;4888414;29;20176;-94
2023/10/01 01:53:27;;;;;;;8.70;3.25;;;13.50;99.90;;;;;;4890906;29;20191;-90
2023/10/01 01:55:56;;;;;;;8.13;3.35;;;13.50;99.90;;;;;;4892518;29;20195;-96
2023/10/01 01:58:26;;;;;;;6.60;3.15;;;13.60;99.90;;;;;;4886377;29;20188;-96
2023/10/01 02:01:01;;;;;;;8.75;3.08;;;13.60;99.90;;;;;;4887157;29;20280;-96
2023/10/01 02:03:34;;;;;;;7.20;3.58;;;13.60;99.90;;;;;;4888716;29;20227;-96
2023/10/01 02:06:01;;;;;;;7.07;3.75;;;13.70;99.90;;;;;;4898320;29;20227;-96
2023/10/01 02:11:13;;;;;;;6.32;3.00;;;13.70;99.90;;;;;;4911195;29;20203;-93
2023/10/01 02:13:45;;;;;;;7.28;2.88;;;13.80;99.90;;;;;;4906703;29;20183;-92
2023/10/01 02:19:17;;;;;;;5.65;3.35;;;13.90;99.90;;;;;;4906654;29;20185;-93
2023/10/01 02:22:24;;;;;;;6.18;2.92;;;13.80;99.90;;;;;;4909995;29;20290;-96
2023/10/01 02:27:06;;;;;;;8.23;3.40;;;13.90;99.90;;;;;;4911549;29;20183;-88
2023/10/01 02:29:32;;;;;;;8.15;3.40;;;13.80;99.90;;;;;;4910544;29;20219;-96
2023/10/01 02:32:04;;;;;;;8.27;3.42;;;13.80;99.90;;;;;;4907768;29;20186;-85
2023/10/01 02:34:31;;;;;;;5.93;3.30;;;13.80;99.90;;;;;;4900138;29;20268;-87
2023/10/01 02:36:58;;;;;;;8.07;3.08;;;13.80;99.90;;;;;;4885872;29;20180;-94
2023/10/01 02:39:27;;;;;;;8.30;3.53;;;13.70;99.90;;;;;;4896893;29;20267;-86
2023/10/01 02:44:35;;;;;;;9.75;3.25;;;13.70;99.90;;;;;;4882543;29;20223;-85
2023/10/01 02:47:09;;;;;;;11.20;3.13;;;13.70;99.90;;;;;;4880629;29;20235;-87
2023/10/01 02:49:47;;;;;;;5.93;2.88;;;13.60;99.90;;;;;;4880353;29;20630;-90
2023/10/01 02:52:14;;;;;;;7.88;3.03;;;13.60;99.90;;;;;;4880809;29;20258;-89
2023/10/01 02:54:40;;;;;;;6.50;3.47;;;13.60;99.90;;;;;;4880759;29;20188;-83
2023/10/01 02:57:12;;;;;;;7.00;3.25;;;13.60;99.90;;;;;;4880012;29;20615;-86
2023/10/01 03:00:10;;;;;;;8.35;3.00;;;13.60;99.90;;;;;;4880483;29;20184;-88
2023/10/01 03:02:25;;;;;;;6.82;2.80;;;13.60;99.90;;;;;;4881640;29;20203;-85
2023/10/01 03:04:51;;;;;;;8.15;3.08;;;13.60;99.90;;;;;;4879446;29;20184;-86
2023/10/01 03:07:17;;;;;;;7.05;3.50;;;13.60;99.90;;;;;;4896358;29;20231;-89
2023/10/01 03:09:48;;;;;;;7.72;2.88;;;13.60;99.90;;;;;;4904552;29;20215;-85
2023/10/01 03:12:27;;;;;;;8.57;3.05;;;13.60;99.90;;;;;;4904304;29;20191;-85
2023/10/01 03:17:57;;;;;;;5.72;2.90;;;13.60;99.90;;;;;;4924224;29;20194;-92
2023/10/01 03:26:04;;;;;;;9.13;2.67;;;13.40;99.90;;;;;;4907717;29;20167;-93
2023/10/01 03:31:21;;;;;;;10.68;3.28;;;13.30;99.90;;;;;;4903191;29;20218;-92
2023/10/01 03:33:47;;;;;;;7.30;3.17;;;13.30;99.90;;;;;;4902480;29;20186;-96
2023/10/01 03:36:16;;;;;;;5.28;2.90;;;13.30;99.90;;;;;;4906453;29;20183;-94
2023/10/01 03:39:46;;;;;;;6.78;3.10;;;13.30;99.90;;;;;;4907615;29;20180;-93
2023/10/01 03:41:52;;;;;;;9.60;3.22;;;13.30;99.90;;;;;;4908313;29;20193;-91
2023/10/01 03:44:40;;;;;;;7.07;3.20;;;13.30;99.90;;;;;;4906601;29;20180;-92
2023/10/01 03:47:05;;;;;;;8.52;3.05;;;13.30;99.90;;;;;;4909237;29;20191;-90
2023/10/01 03:49:45;;;;;;;7.60;3.42;;;13.30;99.90;;;;;;4905233;29;20218;-93
2023/10/01 03:52:14;;;;;;;8.63;3.30;;;13.40;99.90;;;;;;4907398;29;20179;-94
2023/10/01 03:54:54;;;;;;;6.85;2.90;;;13.40;99.90;;;;;;4906349;29;20189;-96
2023/10/01 03:57:20;;;;;;;7.55;3.17;;;13.40;99.90;;;;;;4912464;29;20210;-93
2023/10/01 03:59:53;;;;;;;6.57;2.97;;;13.40;99.90;;;;;;4911206;29;20187;-93
2023/10/01 04:02:27;;;;;;;7.80;2.67;;;13.40;99.90;;;;;;4910637;29;20184;-94
2023/10/01 04:04:57;;;;;;;7.07;2.72;;;13.40;99.90;;;;;;4906150;29;20585;-95
2023/10/01 04:07:49;;;;;;;11.43;3.45;;;13.40;99.90;;;;;;4909956;29;20281;-96
2023/10/01 04:10:35;;;;;;;8.60;3.33;;;13.50;99.90;;;;;;4908497;29;20199;-96
2023/10/01 04:13:24;;;;;;;6.60;2.90;;;13.50;99.90;;;;;;4908365;29;20190;-96
2023/10/01 04:15:55;;;;;;;8.02;3.33;;;13.50;99.90;;;;;;4907838;29;20645;-96
2023/10/01 04:18:23;;;;;;;5.88;3.10;;;13.40;99.90;;;;;;4906792;29;20186;-94
2023/10/01 04:23:48;;;;;;;6.05;3.10;;;13.40;99.90;;;;;;4906464;29;20170;-95
2023/10/01 04:26:17;;;;;;;8.23;3.00;;;13.50;99.90;;;;;;4906600;29;20182;-94
2023/10/01 04:29:01;;;;;;;8.25;3.42;;;13.50;99.90;;;;;;4908421;29;20247;-96
2023/10/01 04:31:42;;;;;;;7.05;3.22;;;13.40;99.90;;;;;;4914574;29;20189;-96
2023/10/01 04:34:11;;;;;;;8.18;3.00;;;13.40;99.90;;;;;;4911722;29;20183;-91
2023/10/01 04:36:38;;;;;;;8.02;2.92;;;13.40;99.90;;;;;;4901511;29;20180;-96
2023/10/01 04:39:05;;;;;;;5.22;2.75;;;13.50;99.90;;;;;;4895267;29;20200;-95
2023/10/01 04:41:32;;;;;;;10.65;3.70;;;13.40;99.90;;;;;;4908935;29;20511;-96
2023/10/01 04:44:08;;;;;;;5.10;2.67;;;13.40;99.90;;;;;;4894929;29;20202;-91
2023/10/01 04:46:40;;;;;;;8.60;3.15;;;13.40;99.90;;;;;;4902774;29;20200;-85
2023/10/01 04:49:31;;;;;;;6.90;2.72;;;13.40;99.90;;;;;;4898777;29;20233;-94
2023/10/01 04:52:04;;;;;;;7.88;3.42;;;13.40;99.90;;;;;;4890380;29;20211;-92
2023/10/01 04:54:31;;;;;;;8.02;3.42;;;13.50;99.90;;;;;;4888759;29;20169;-96
2023/10/01 04:56:57;;;;;;;6.05;2.60;;;13.40;99.90;;;;;;4906335;29;20191;-95
2023/10/01 04:59:32;;;;;;;7.03;3.13;;;13.40;99.90;;;;;;4902961;29;20721;-96
2023/10/01 05:01:59;;;;;;;7.03;2.95;;;13.40;99.90;;;;;;4904039;29;20229;-96
2023/10/01 05:04:26;;;;;;;8.80;3.58;;;13.30;99.90;;;;;;4907853;29;20175;-96
2023/10/01 05:07:04;;;;;;;10.60;3.42;;;13.40;99.90;;;;;;4911173;29;20235;-96
2023/10/01 05:09:36;;;;;;;6.57;2.90;;;13.40;99.90;;;;;;4917790;29;20293;-90
2023/10/01 05:12:03;;;;;;;7.18;3.08;;;13.30;99.90;;;;;;4916624;29;20187;-90
2023/10/01 05:14:29;;;;;;;6.90;3.08;;;13.40;99.90;;;;;;4905106;29;20702;-84
2023/10/01 05:16:54;;;;;;;5.75;3.00;;;13.30;99.90;;;;;;4921030;29;20180;-94
2023/10/01 05:19:29;;;;;;;7.20;3.28;;;13.30;99.90;;;;;;4915217;29;20194;-86
2023/10/01 05:21:56;;;;;;;5.95;3.10;;;13.20;99.90;;;;;;4924879;23;20175;-90
2023/10/01 05:24:34;;;;;;;7.88;3.42;;;13.30;99.90;;;;;;4899612;29;20262;-89
2023/10/01 05:27:18;;;;;;;7.95;3.40;;;13.20;99.90;;;;;;4894492;29;20179;-89
2023/10/01 05:30:32;;;;;;;8.93;3.22;;;13.30;99.90;;;;;;4898116;29;20203;-86
2023/10/01 05:32:52;;;;;;;7.63;2.83;;;13.30;99.90;;;;;;4897951;29;20275;-85
2023/10/01 05:35:18;;;;;;;6.18;2.90;;;13.30;99.90;;;;;;4892894;29;20183;-95
2023/10/01 05:37:45;;;;;;;9.50;3.78;;;13.30;99.90;;;;;;4892088;29;20184;-91
2023/10/01 05:40:15;;;;;;;6.32;3.05;;;13.30;99.90;;;;;;4887023;29;20203;-85
2023/10/01 05:42:44;;;;;;;8.88;3.30;;;13.30;99.90;;;;;;4887576;29;20290;-91
2023/10/01 05:45:36;;;;;;;6.90;3.40;;;13.40;99.90;;;;;;4886251;29;20188;-88
2023/10/01 05:48:02;;;;;;;6.82;3.30;;;13.30;99.90;;;;;;4889170;29;20176;-86
2023/10/01 05:50:31;;;;;;;5.10;3.15;;;13.40;99.90;;;;;;4887086;29;20188;-86
2023/10/01 05:52:57;;;;;;;5.47;3.13;;;13.30;99.90;;;;;;4883549;29;20674;-88
2023/10/01 05:55:24;;;;;;;5.90;3.15;;;13.30;99.90;;;;;;4883805;29;20188;-86
2023/10/01 05:57:50;;;;;;;6.45;3.15;;;13.30;99.90;;;;;;4884708;29;20175;-94
2023/10/01 06:00:26;;;;;;;7.60;2.92;;;13.30;99.90;;;;;;4888108;29;20603;-87
2023/10/01 06:03:01;;;;;;;8.48;3.55;;;13.30;99.90;;;;;;4887548;29;20168;-91
2023/10/01 06:05:33;;;;;;;9.98;3.25;;;13.30;99.90;;;;;;4886273;29;20179;-87
2023/10/01 06:08:15;;;;;;;10.00;3.60;;;13.30;99.90;;;;;;4889655;29;20176;-90
2023/10/01 06:11:06;;;;;;;7.22;2.80;;;13.30;99.90;;;;;;4907872;23;20243;-86
2023/10/01 06:13:48;;;;;;;7.45;3.25;;;13.30;99.90;;;;;;4906230;29;20178;-87
2023/10/01 06:16:16;;;;;;;10.13;3.33;;;13.30;99.90;;;;;;4905511;29;20175;-86
2023/10/01 06:18:51;;;;;;;6.65;3.33;;;13.30;99.90;;;;;;4908100;29;20190;-87
2023/10/01 06:21:25;;;;;;;6.80;3.17;;;13.40;99.90;;;;;;4903179;29;20551;-87
2023/10/01 06:23:53;;;;;;;7.70;3.13;;;13.40;99.90;;;;;;4891391;29;20208;-87
2023/10/01 06:26:42;;;;;;;6.57;3.50;;;13.30;99.90;;;;;;4910718;29;20183;-92
2023/10/01 06:29:10;;;;;;;6.93;3.40;;;13.30;99.90;;;;;;4909408;29;20230;-84
2023/10/01 06:31:52;;;;;;;7.32;3.58;;;13.30;99.90;;;;;;4910213;29;20170;-86
2023/10/01 06:34:24;;;;;;;6.82;3.30;;;13.40;99.90;;;;;;4918029;29;20206;-84
2023/10/01 06:37:10;;;;;;;6.20;2.90;;;13.50;99.90;;;;;;4916497;29;20176;-93
2023/10/01 06:39:40;;;;;;;9.05;3.78;;;13.60;99.90;;;;;;4912685;29;20199;-96
2023/10/01 06:42:19;;;;;;;5.22;3.40;;;13.60;99.90;;;;;;4940810;23;20246;-85
2023/10/01 06:44:50;;;;;;;7.45;3.00;;;13.70;99.90;;;;;;4882186;29;20180;-86
2023/10/01 06:47:22;;;;;;;7.05;2.85;;;13.80;99.90;;;;;;4883387;29;20167;-85
2023/10/01 06:49:59;;;;;;;6.95;2.95;;;13.80;99.90;;;;;;4882491;29;20207;-84
2023/10/01 06:52:32;;;;;;;6.40;3.03;;;13.90;99.90;;;;;;4881366;29;20183;-86
2023/10/01 06:55:01;;;;;;;9.20;2.97;;;13.90;99.90;;;;;;4881156;29;20187;-86
2023/10/01 06:57:28;;;;;;;7.97;3.15;;;13.90;99.90;;;;;;4881697;29;20191;-87
2023/10/01 06:59:56;;;;;;;5.35;2.88;;;13.90;99.90;;;;;;4880307;29;20278;-85
2023/10/01 07:02:27;;;;;;;9.52;3.05;;;14.00;99.90;;;;;;4879728;29;20619;-86
2023/10/01 07:04:56;;;;;;;4.93;2.70;;;14.00;99.90;;;;;;4880168;29;20271;-87
2023/10/01 07:07:24;;;;;;;7.22;3.65;;;14.10;99.90;;;;;;4880123;29;20628;-87
2023/10/01 07:09:53;;;;;;;8.65;3.15;;;14.20;99.90;;;;;;4881315;29;20222;-88
2023/10/01 07:12:23;;;;;;;8.52;2.72;;;14.30;99.90;;;;;;4880520;29;20184;-86
2023/10/01 07:14:53;;;;;;;6.50;2.88;;;14.40;99.90;;;;;;4869398;29;20635;-85
2023/10/01 07:17:24;;;;;;;4.70;2.78;;;14.40;99.90;;;;;;4886309;29;20204;-84
2023/10/01 07:20:01;;;;;;;7.10;3.42;;;14.40;99.90;;;;;;4885907;29;20632;-86
2023/10/01 07:22:31;;;;;;;6.53;3.08;;;14.40;99.90;;;;;;4870776;29;20194;-87
2023/10/01 07:25:05;;;;;;;5.90;2.50;;;14.50;99.90;;;;;;4882994;29;20212;-85
2023/10/01 07:27:31;;;;;;;6.38;2.90;;;14.60;99.90;;;;;;4858240;29;20196;-84
2023/10/01 07:29:58;;;;;;;5.70;2.65;;;14.60;99.90;;;;;;4888862;29;20215;-88
2023/10/01 07:32:25;;;;;;;6.50;3.03;;;14.60;99.90;;;;;;4879377;29;20571;-92
2023/10/01 07:34:59;;;;;;;6.53;3.10;;;14.70;99.90;;;;;;4870100;29;20522;-85
2023/10/01 07:37:26;;;;;;;6.82;3.30;;;14.90;99.90;;;;;;4870402;29;20213;-84
2023/10/01 07:39:59;;;;;;;5.28;3.17;;;14.90;99.90;;;;;;4870968;29;20189;-88
2023/10/01 07:42:28;;;;;;;6.35;3.28;;;14.90;99.90;;;;;;4870367;29;20280;-87
2023/10/01 07:44:56;;;;;;;6.93;2.92;;;15.00;99.90;;;;;;4870851;29;20173;-85
2023/10/01 07:47:28;;;;;;;7.95;3.10;;;15.10;99.90;;;;;;4871602;29;20561;-84
2023/10/01 07:49:56;;;;;;;6.30;2.92;;;15.10;99.90;;;;;;4870652;29;20215;-85
2023/10/01 07:52:27;;;;;;;5.60;3.40;;;15.10;99.90;;;;;;4874097;29;20506;-84
2023/10/01 07:54:55;;;;;;;4.60;3.00;;;15.10;99.90;;;;;;4868879;29;20233;-90
2023/10/01 07:57:27;;;;;;;6.43;3.05;;;15.20;99.90;;;;;;4870866;29;20184;-90
2023/10/01 07:59:56;;;;;;;6.85;3.45;;;15.30;99.90;;;;;;4870716;29;20515;-84
2023/10/01 08:02:22;;;;;;;8.27;3.45;;;15.30;99.90;;;;;;4870678;29;20228;-85
2023/10/01 08:04:58;;;;;;;6.38;3.55;;;15.40;99.90;;;;;;4868985;29;20176;-88
2023/10/01 08:07:30;;;;;;;9.23;3.30;;;15.50;99.90;;;;;;4870121;29;20196;-88
2023/10/01 08:10:04;;;;;;;7.50;3.22;;;15.60;99.90;;;;;;4886145;29;20212;-89
2023/10/01 08:15:29;;;;;;;9.55;3.50;;;15.70;99.90;;;;;;4890337;29;20168;-87
2023/10/01 08:21:00;;;;;;;6.22;3.13;;;15.70;99.90;;;;;;4888721;29;20683;-85
2023/10/01 08:23:33;;;;;;;5.55;3.30;;;15.80;99.90;;;;;;4888832;29;20171;-87
2023/10/01 08:28:57;;;;;;;8.88;3.22;;;15.80;99.90;;;;;;4894676;29;20235;-92
2023/10/01 08:34:28;;;;;;;9.05;3.17;;;15.80;99.90;;;;;;4890175;29;20175;-93
2023/10/01 08:37:09;;;;;;;6.03;3.08;;;15.80;99.90;;;;;;4895005;29;20191;-91
2023/10/01 08:39:56;;;;;;;6.20;3.17;;;15.90;99.90;;;;;;4891670;29;20164;-93
2023/10/01 08:42:30;;;;;;;8.07;3.53;;;15.90;99.90;;;;;;4891082;29;20332;-96
2023/10/01 08:45:03;;;;;;;6.75;3.35;;;16.00;99.90;;;;;;4896235;29;20180;-87
2023/10/01 08:47:34;;;;;;;7.38;3.33;;;16.00;99.90;;;;;;4892165;29;20188;-94
2023/10/01 08:56:33;;;;;;;5.60;3.30;;;16.20;99.90;;;;;;4956792;29;20245;-92
2023/10/01 08:59:04;;;;;;;8.10;3.30;;;16.30;99.90;;;;;;4934361;29;20519;-95
2023/10/01 09:01:34;;;;;;;6.50;3.10;;;16.40;99.90;;;;;;4961244;23;20237;-89
2023/10/01 09:04:29;;;;;;;7.28;3.28;;;16.40;99.90;;;;;;4983462;28;20168;-96
2023/10/01 09:07:03;;;;;;;6.43;3.10;;;16.50;99.90;;;;;;4995728;28;20254;-93
2023/10/01 09:09:54;;;;;;;6.43;3.17;;;16.50;99.90;;;;;;4996145;28;20229;-95
2023/10/01 09:12:48;;;;;;;6.57;3.03;;;16.60;99.90;;;;;;4968196;28;20171;-96
2023/10/01 09:15:38;;;;;;;7.45;3.08;;;16.60;99.90;;;;;;4970623;28;20189;-94
2023/10/01 09:18:20;;;;;;;5.97;2.83;;;16.60;99.90;;;;;;4955388;28;20169;-95
2023/10/01 09:23:57;;;;;;;7.00;3.30;;;16.70;99.90;;;;;;4994525;28;20471;-96
2023/10/01 09:26:40;;;;;;;7.93;3.13;;;16.70;99.90;;;;;;5046807;23;20252;-96
2023/10/01 09:29:20;;;;;;;5.88;2.83;;;16.70;99.90;;;;;;4992401;23;20240;-96
2023/10/01 09:31:57;;;;;;;6.45;3.25;;;16.70;99.90;;;;;;4976388;28;20168;-90
2023/10/01 09:34:46;;;;;;;6.72;2.90;;;16.80;99.90;;;;;;4994558;28;20161;-96
2023/10/01 09:37:34;;;;;;;5.13;3.10;;;16.80;99.90;;;;;;5175361;23;20169;-91
2023/10/01 09:43:17;;;;;;;7.18;2.90;;;16.80;99.90;;;;;;4992128;28;20228;-90
2023/10/01 09:46:02;;;;;;;6.30;3.03;;;16.80;99.90;;;;;;5034521;23;20295;31
2023/10/01 09:48:30;;;;;;;5.47;2.42;;;16.90;99.90;;;;;;4907392;29;20234;-93
2023/10/01 09:51:07;;;;;;;6.25;2.97;;;16.90;99.90;;;;;;4909337;29;20179;-93
2023/10/01 09:54:01;;;;;;;6.22;2.85;;;17.10;99.90;;;;;;4907066;29;20207;-93
2023/10/01 09:56:31;;;;;;;5.20;2.65;;;17.30;99.90;;;;;;4911475;29;20191;-88
2023/10/01 09:59:03;;;;;;;5.57;2.78;;;17.30;99.90;;;;;;4914559;29;20175;-96
2023/10/01 10:01:36;;;;;;;7.93;3.15;;;17.50;99.90;;;;;;4909998;29;20183;-96
2023/10/01 10:04:10;;;;;;;4.72;2.85;;;17.50;99.90;;;;;;4911996;29;20178;-90
2023/10/01 10:06:41;;;;;;;7.68;3.25;;;17.60;99.90;;;;;;4915039;29;20183;-96
2023/10/01 10:09:26;;;;;;;5.07;3.03;;;17.60;99.90;;;;;;4911788;29;20215;-84
2023/10/01 10:11:54;;;;;;;8.18;2.58;;;17.50;99.90;;;;;;4913472;29;20179;-96
2023/10/01 10:14:33;;;;;;;6.45;3.20;;;17.40;99.90;;;;;;4996919;23;20243;-95
2023/10/01 10:16:59;;;;;;;7.43;3.28;;;17.40;99.90;;;;;;4981208;28;20251;-89
2023/10/01 10:19:26;;;;;;;9.70;3.00;;;17.40;99.90;;;;;;4991464;28;20181;-91
2023/10/01 10:24:30;;;;;;;6.53;2.92;;;17.50;99.90;;;;;;4996343;28;20160;-86
2023/10/01 10:26:57;;;;;;;8.13;3.00;;;17.60;99.90;;;;;;4974810;28;20184;-89
2023/10/01 10:29:56;;;;;;;7.10;3.58;;;17.70;99.90;;;;;;5002540;23;20236;-94
2023/10/01 10:32:44;;;;;;;5.53;2.80;;;17.80;99.90;;;;;;4942881;28;20192;-95
2023/10/01 10:35:39;;;;;;;9.98;2.88;;;17.90;99.90;;;;;;4973798;23;20233;-94
2023/10/01 10:38:09;;;;;;;8.23;3.13;;;17.90;99.90;;;;;;4957504;28;20162;-85
2023/10/01 10:41:07;;;;;;;8.63;3.40;;;18.00;99.90;;;;;;4960082;28;20177;-86
2023/10/01 10:44:09;;;;;;;6.60;3.03;;;18.00;99.90;;;;;;4977253;23;20251;-95
2023/10/01 10:47:15;;;;;;;6.88;3.05;;;17.90;99.90;;;;;;5036133;23;20233;-89
2023/10/01 10:49:56;;;;;;;7.60;3.40;;;17.90;99.90;;;;;;5026821;23;20276;-86
2023/10/01 10:52:31;;;;;;;5.95;3.15;;;17.80;99.90;;;;;;4720822;23;11719948;-87
2023/10/01 10:55:16;;;;;;;5.88;3.35;;;17.80;99.90;;;;;;4977914;28;20417;-86
2023/10/01 10:57:51;;;;;;;5.97;3.33;;;17.70;99.90;;;;;;5014952;23;20350;-85
2023/10/01 11:00:24;;;;;;;7.50;3.17;;;17.70;99.90;;;;;;5001842;28;20153;-87
2023/10/01 11:03:42;;;;;;;8.98;3.22;;;17.60;99.90;;;;;;4989222;23;20293;-91
2023/10/01 11:06:17;;;;;;;6.40;3.03;;;17.50;99.90;;;;;;4968021;28;20196;-87
2023/10/01 11:08:51;;;;;;;8.60;3.10;;;17.40;99.90;;;;;;4982373;28;20216;-85
2023/10/01 11:11:48;;;;;;;5.78;3.05;;;17.40;99.90;;;;;;4963129;28;20255;-86
2023/10/01 11:14:17;;;;;;;6.68;3.05;;;17.50;99.90;;;;;;4959930;29;20182;-84
2023/10/01 11:16:45;;;;;;;8.40;3.28;;;17.50;99.90;;;;;;4959716;29;20201;-85
2023/10/01 11:19:12;;;;;;;7.30;3.20;;;17.60;99.90;;;;;;4960181;29;20181;-85
2023/10/01 11:21:55;;;;;;;7.40;3.90;;;17.60;99.90;;;;;;4966903;29;20181;-84
2023/10/01 11:24:29;;;;;;;7.05;3.45;;;17.70;99.90;;;;;;4968242;29;20241;-84
2023/10/01 11:27:11;;;;;;;9.57;3.80;;;17.70;99.90;;;;;;4967341;29;20174;-86
2023/10/01 11:30:12;;;;;;;6.90;3.10;;;17.70;99.90;;;;;;4967387;29;20212;-84
2023/10/01 11:33:12;;;;;;;7.32;3.50;;;17.80;99.90;;;;;;4961153;29;20188;-84
2023/10/01 11:36:10;;;;;;;11.73;3.70;;;17.70;99.90;;;;;;4968138;29;20201;-84
2023/10/01 11:38:44;;;;;;;10.55;3.78;;;17.70;99.90;;;;;;4966536;29;20260;-84
2023/10/01 11:41:10;;;;;;;9.48;3.70;;;17.70;99.90;;;;;;4968014;29;20181;-86
2023/10/01 11:44:00;;;;;;;6.35;2.97;;;17.70;99.90;;;;;;4966749;29;20182;-85
2023/10/01 11:46:29;;;;;;;10.30;3.75;;;17.70;99.90;;;;;;4968309;29;20170;-86
2023/10/01 11:49:00;;;;;;;7.82;3.40;;;17.70;99.90;;;;;;4968227;29;20209;-87
2023/10/01 11:54:18;;;;;;;5.85;3.08;;;17.80;99.90;;;;;;4969617;28;20158;-86
2023/10/01 11:57:05;;;;;;;9.52;3.53;;;17.90;99.90;;;;;;4971632;28;20193;-87
2023/10/01 11:59:34;;;;;;;6.70;3.60;;;17.90;99.90;;;;;;4975993;29;20168;-87
2023/10/01 12:02:20;;;;;;;10.40;3.65;;;17.90;99.90;;;;;;4979678;29;20181;-85
2023/10/01 12:05:09;;;;;;;7.07;3.15;;;18.00;99.90;;;;;;5228476;23;20241;31
2023/10/01 12:07:45;;;;;;;7.78;3.47;;;18.10;99.90;;;;;;4917439;29;20207;-85
2023/10/01 12:10:32;;;;;;;7.50;3.50;;;18.10;99.90;;;;;;5065840;23;20191;-86
2023/10/01 12:13:01;;;;;;;9.38;3.65;;;18.10;99.90;;;;;;4986685;23;20252;-84
2023/10/01 12:15:33;;;;;;;8.98;3.90;;;18.00;99.90;;;;;;4983278;28;20173;-84
2023/10/01 12:18:15;;;;;;;7.53;3.67;;;18.10;99.90;;;;;;4983245;28;20165;-85
2023/10/01 12:20:53;;;;;;;9.05;4.13;;;18.10;99.90;;;;;;4981635;28;20204;-84
2023/10/01 12:23:49;;;;;;;8.40;3.60;;;18.10;99.90;;;;;;4982565;28;20149;-85
2023/10/01 12:29:11;;;;;;;10.77;4.07;;;18.20;99.90;;;;;;4997178;28;20270;-86
2023/10/01 12:31:31;;;;;;;9.70;4.28;;;18.30;99.90;;;;;;4986562;28;20180;-84
2023/10/01 12:34:03;;;;;;;7.40;4.18;;;18.30;99.90;;;;;;4970087;28;20207;-86
2023/10/01 12:36:32;;;;;;;8.10;3.42;;;18.40;99.90;;;;;;4968963;28;20180;-86
2023/10/01 12:44:34;;;;;;;9.50;4.20;;;18.60;99.90;;;;;;4986868;28;20161;-88
2023/10/01 12:47:08;;;;;;;10.48;4.47;;;18.60;99.90;;;;;;4964340;28;20514;-85
2023/10/01 12:49:35;;;;;;;10.70;4.43;;;18.60;99.90;;;;;;4967265;28;20659;-85
2023/10/01 12:52:14;;;;;;;10.50;4.20;;;18.60;99.90;;;;;;4966468;28;20212;-87
2023/10/01 12:54:48;;;;;;;11.07;4.88;;;18.70;99.90;;;;;;4952807;28;20173;-84
2023/10/01 12:57:18;;;;;;;11.45;4.95;;;18.60;99.90;;;;;;4984759;28;20178;-85
2023/10/01 12:59:46;;;;;;;8.98;4.60;;;18.70;99.90;;;;;;4985077;28;20161;-86
2023/10/01 13:02:22;;;;;;;8.48;4.32;;;18.80;99.90;;;;;;4974124;23;20632;-86
2023/10/01 13:07:47;;;;;;;11.73;4.68;;;19.00;99.90;;;;;;4949073;29;20166;-85
2023/10/01 13:10:16;;;;;;;12.48;4.50;;;18.90;99.90;;;;;;4962759;29;20213;-85
2023/10/01 13:12:59;;;;;;;8.73;4.22;;;19.00;99.90;;;;;;4962757;29;20182;-86
2023/10/01 13:15:33;;;;;;;10.50;4.15;;;19.00;99.90;;;;;;4952816;29;20178;-85
2023/10/01 13:18:01;;;;;;;7.95;4.35;;;18.90;99.90;;;;;;4968000;29;20637;-86
2023/10/01 13:20:58;;;;;;;11.07;4.93;;;18.90;99.90;;;;;;4966013;29;20182;-84
2023/10/01 13:23:28;;;;;;;10.18;4.55;;;19.00;99.90;;;;;;4965457;28;20174;-83
2023/10/01 13:26:09;;;;;;;12.75;5.07;;;19.00;99.90;;;;;;4977772;23;20240;-86
2023/10/01 13:28:46;;;;;;;8.43;4.38;;;19.00;99.90;;;;;;4973622;28;20201;-90
2023/10/01 13:34:21;;;;;;;12.18;5.07;;;19.10;99.90;;;;;;4986571;28;20169;-84
2023/10/01 13:37:12;;;;;;;14.43;5.55;;;19.10;99.90;;;;;;4970204;28;20264;-85
2023/10/01 14:10:04;;;;;;;9.30;4.80;;;19.50;99.90;;;;;;5241144;23;20313;-85
2023/10/01 14:15:24;;;;;;;11.57;5.32;;;19.40;99.90;;;;;;4994655;28;20163;-85
2023/10/01 14:17:55;;;;;;;8.07;4.65;;;19.40;99.90;;;;;;4981809;28;20183;-85
2023/10/01 14:20:37;;;;;;;9.85;4.45;;;19.40;99.90;;;;;;4981875;28;20191;-84
2023/10/01 14:23:07;;;;;;;11.48;5.18;;;19.30;99.90;;;;;;4980987;28;20324;-85
2023/10/01 14:25:52;;;;;;;10.57;4.63;;;19.30;99.90;;;;;;4982479;28;20180;-88
2023/10/01 14:28:25;;;;;;;9.80;5.03;;;19.30;99.90;;;;;;4979954;28;20184;-84
2023/10/01 14:30:58;;;;;;;12.23;5.40;;;19.30;99.90;;;;;;4980603;28;20180;-83
2023/10/01 14:33:40;;;;;;;11.70;5.30;;;19.40;99.90;;;;;;4992985;28;20603;-85
2023/10/01 14:36:07;;;;;;;10.25;4.65;;;19.30;99.90;;;;;;4975145;28;20196;-86
2023/10/01 14:38:43;;;;;;;15.52;5.40;;;19.30;99.90;;;;;;4978973;28;20199;-85
2023/10/01 14:41:11;;;;;;;11.38;4.95;;;19.30;99.90;;;;;;4980080;28;20180;-85
2023/10/01 14:44:27;;;;;;;10.70;4.70;;;19.30;99.90;;;;;;4996959;28;20200;-84
2023/10/01 14:46:56;;;;;;;10.82;4.82;;;19.30;99.90;;;;;;4984772;23;20308;-91
2023/10/01 14:49:24;;;;;;;9.05;5.25;;;19.30;99.90;;;;;;4980735;28;20192;-85
2023/10/01 14:51:56;;;;;;;10.27;4.97;;;19.30;99.90;;;;;;4999326;28;20191;-85
2023/10/01 14:54:37;;;;;;;9.05;4.88;;;19.30;99.90;;;;;;4998346;28;20171;-86
2023/10/01 14:57:03;;;;;;;10.80;5.15;;;19.30;99.90;;;;;;4982591;28;20188;-85
2023/10/01 14:59:32;;;;;;;10.48;5.10;;;19.20;99.90;;;;;;4965582;28;20208;-93
2023/10/01 15:01:57;;;;;;;11.20;5.22;;;19.20;99.90;;;;;;4980180;28;20564;-94
2023/10/01 15:04:29;;;;;;;11.82;5.63;;;19.20;99.90;;;;;;4987887;23;20216;-85